Time;durP1;ratioP1;P1;durP2;ratioP2;P2;SDS_P1;SDS_P2;PMS_P1;PMS_P2;Temp;Humidity;BMP_temperature;BMP_pressure;BME280_temperature;BME280_humidity;BME280_pressure;Samples;Min_cycle;Max_cycle;Signal;HPM_P1;HPM_P2
2023/07/21 00:01:21;;;;;;;2.53;2.05;;;;;;;13.48;78.76;101159.13;5073538;28;20027;-90
2023/07/21 00:03:46;;;;;;;2.23;2.03;;;;;;;13.55;78.73;101184.16;5055635;28;20028;-91
2023/07/21 00:06:17;;;;;;;2.17;2.03;;;;;;;13.50;79.22;101172.97;5072678;28;20031;-91
2023/07/21 00:08:43;;;;;;;2.45;2.05;;;;;;;13.50;79.37;101173.81;5073682;28;20056;-91
2023/07/21 00:11:09;;;;;;;2.45;2.25;;;;;;;13.52;79.07;101179.00;5073139;28;20024;-90
2023/07/21 00:13:35;;;;;;;2.30;2.10;;;;;;;13.45;79.43;101167.88;5073219;28;20043;-90
2023/07/21 00:16:04;;;;;;;2.30;2.10;;;;;;;13.41;79.45;101164.44;5073321;28;20044;-90
2023/07/21 00:18:30;;;;;;;2.20;2.00;;;;;;;13.40;79.39;101178.38;5073522;28;20086;-90
2023/07/21 00:20:56;;;;;;;2.20;2.05;;;;;;;13.32;79.70;101164.63;5073237;28;20013;-90
2023/07/21 00:23:26;;;;;;;2.03;1.93;;;;;;;13.21;79.87;101156.16;5072876;28;20408;-90
2023/07/21 00:25:55;;;;;;;2.83;2.30;;;;;;;13.17;79.96;101147.56;5073477;28;20373;-90
2023/07/21 00:28:20;;;;;;;2.30;2.10;;;;;;;13.27;79.99;101169.09;5073329;28;20021;-91
2023/07/21 00:30:47;;;;;;;2.60;2.40;;;;;;;13.15;80.07;101144.13;5073302;28;20103;-91
2023/07/21 00:33:13;;;;;;;2.35;2.15;;;;;;;13.13;79.85;101140.69;5072844;28;20016;-90
2023/07/21 00:35:40;;;;;;;2.00;1.90;;;;;;;13.15;80.17;101138.06;5073259;28;20031;-90
2023/07/21 00:38:06;;;;;;;;;;;;;;;13.23;80.26;101155.25;5074692;28;20274;-89
2023/07/21 00:40:33;;;;;;;2.27;2.10;;;;;;;13.12;80.05;101149.41;5076845;28;19920;-90
2023/07/21 00:42:58;;;;;;;2.38;2.17;;;;;;;13.05;80.20;101143.47;5076640;28;20078;-91
2023/07/21 00:45:23;;;;;;;2.97;2.60;;;;;;;13.07;80.18;101154.72;5076427;28;20028;-90
2023/07/21 00:47:50;;;;;;;2.70;2.50;;;;;;;13.05;80.38;101140.88;5076132;28;20035;-91
2023/07/21 00:50:16;;;;;;;2.45;2.25;;;;;;;13.16;80.17;101155.44;5076666;28;20020;-90
2023/07/21 00:52:42;;;;;;;;;;;;;;;13.14;80.24;101152.84;5077049;28;20024;-90
2023/07/21 00:55:08;;;;;;;3.00;2.65;;;;;;;13.04;80.26;101141.75;5076471;28;19912;-90
2023/07/21 00:57:35;;;;;;;2.78;2.50;;;;;;;13.08;80.28;101142.56;5076603;28;20036;-91
2023/07/21 01:00:09;;;;;;;2.55;2.35;;;;;;;13.01;80.58;101134.00;5076436;28;20013;-90
2023/07/21 01:02:35;;;;;;;2.60;2.40;;;;;;;12.91;80.54;101119.47;5072707;28;20036;-90
2023/07/21 01:05:01;;;;;;;2.60;2.40;;;;;;;12.92;80.67;101121.19;5076271;28;20105;-90
2023/07/21 01:07:30;;;;;;;2.40;2.20;;;;;;;13.02;80.86;101140.06;5075899;28;20028;-90
2023/07/21 01:09:57;;;;;;;2.10;2.00;;;;;;;12.91;80.49;101127.28;5075998;28;20017;-89
2023/07/21 01:12:22;;;;;;;;;;;;;;;12.94;81.01;101133.28;5076339;28;20489;-90
2023/07/21 01:14:47;;;;;;;2.40;2.20;;;;;;;12.77;80.80;101117.13;5075184;28;19912;-90
2023/07/21 01:17:15;;;;;;;2.43;2.20;;;;;;;12.89;80.80;101135.09;5074703;28;20048;-91
2023/07/21 01:19:41;;;;;;;2.53;2.30;;;;;;;12.82;80.77;101126.56;5076117;28;20032;-90
2023/07/21 01:22:22;;;;;;;2.20;2.00;;;;;;;12.79;80.97;101118.81;5076043;28;20035;-90
2023/07/21 01:24:51;;;;;;;2.38;2.17;;;;;;;12.86;80.81;101131.69;5075457;28;20056;-90
2023/07/21 01:27:22;;;;;;;2.13;1.92;;;;;;;12.84;81.31;101129.13;5075351;28;20036;-90
2023/07/21 01:29:49;;;;;;;2.33;2.13;;;;;;;12.71;81.04;101107.69;5075827;28;20028;-90
2023/07/21 01:32:18;;;;;;;2.20;2.00;;;;;;;12.74;80.87;101112.81;5075467;28;20031;-90
2023/07/21 01:34:50;;;;;;;2.50;2.30;;;;;;;12.65;81.11;101113.88;5075915;28;20090;-90
2023/07/21 01:37:16;;;;;;;1.90;1.80;;;;;;;12.55;81.26;101101.94;5075389;28;20095;-90
2023/07/21 01:39:43;;;;;;;2.17;1.90;;;;;;;12.55;81.26;101107.16;5075495;28;20108;-90
2023/07/21 01:42:11;;;;;;;2.35;2.15;;;;;;;12.48;81.30;101098.59;5075624;28;20016;-90
2023/07/21 01:44:37;;;;;;;3.05;2.55;;;;;;;12.59;81.44;101113.16;5075308;28;20484;-89
2023/07/21 01:47:04;;;;;;;3.17;2.60;;;;;;;12.48;81.22;101093.38;5075331;28;20028;-90
2023/07/21 01:49:30;;;;;;;2.45;2.25;;;;;;;12.52;81.32;101097.63;5074570;28;20067;-90
2023/07/21 01:51:57;;;;;;;;;;;;;;;12.55;81.39;101108.88;5067535;28;20033;-89
2023/07/21 01:54:48;;;;;;;2.28;2.08;;;;;;;12.52;81.50;101112.41;5055083;28;20214;-90
2023/07/21 01:57:24;;;;;;;2.03;1.88;;;;;;;12.39;81.44;101092.69;5055143;28;20021;-90
2023/07/21 01:59:50;;;;;;;2.25;2.05;;;;;;;12.40;81.52;101089.22;5054785;28;20083;-90
2023/07/21 02:02:24;;;;;;;2.73;2.27;;;;;;;12.30;81.40;101075.50;5055188;28;20029;-90
2023/07/21 02:04:51;;;;;;;2.40;2.20;;;;;;;12.23;81.38;101073.91;5055171;28;20029;-89
2023/07/21 02:07:18;;;;;;;2.13;1.95;;;;;;;12.32;81.70;101099.75;5054289;28;20112;-90
2023/07/21 02:09:51;;;;;;;2.17;2.08;;;;;;;12.16;81.69;101076.59;5054792;28;20044;-90
2023/07/21 02:12:31;;;;;;;2.00;1.90;;;;;;;12.24;81.90;101096.44;5054618;28;20075;-89
2023/07/21 02:14:56;;;;;;;2.30;2.10;;;;;;;12.15;81.79;101082.72;5054676;28;20021;-90
2023/07/21 02:17:21;;;;;;;1.90;1.80;;;;;;;12.10;82.12;101079.34;5055013;28;20132;-89
2023/07/21 02:19:47;;;;;;;2.00;1.80;;;;;;;12.18;81.75;101087.00;5073420;28;20074;-90
2023/07/21 02:22:32;;;;;;;2.43;2.20;;;;;;;12.11;81.86;101075.84;5074343;28;20081;-89
2023/07/21 02:25:09;;;;;;;2.33;2.13;;;;;;;11.99;82.15;101066.50;5075205;28;20038;-90
2023/07/21 02:27:34;;;;;;;2.75;1.90;;;;;;;12.02;82.15;101076.03;5074157;28;20032;-89
2023/07/21 02:30:02;;;;;;;2.23;2.03;;;;;;;12.07;82.22;101088.94;5074514;28;20025;-89
2023/07/21 02:32:28;;;;;;;2.20;2.00;;;;;;;11.95;82.31;101074.34;5074721;28;20040;-90
2023/07/21 02:34:53;;;;;;;2.53;1.90;;;;;;;12.01;82.37;101090.75;5073904;28;20016;-89
2023/07/21 02:37:19;;;;;;;2.07;1.97;;;;;;;11.84;82.39;101062.41;5074211;28;20064;-89
2023/07/21 02:39:47;;;;;;;2.57;2.37;;;;;;;11.98;82.30;101084.75;5074013;28;20099;-89
2023/07/21 02:42:12;;;;;;;2.50;2.30;;;;;;;11.97;82.27;101080.41;5073298;28;20021;-89
2023/07/21 02:44:37;;;;;;;2.23;2.03;;;;;;;11.84;82.52;101066.75;5074203;28;20043;-88
2023/07/21 02:47:16;;;;;;;2.00;1.90;;;;;;;11.87;82.66;101067.56;5073809;28;20135;-89
2023/07/21 02:49:50;;;;;;;2.20;2.00;;;;;;;11.89;82.59;101076.19;5073623;28;20112;-89
2023/07/21 02:52:16;;;;;;;2.00;1.90;;;;;;;11.78;82.33;101064.25;5073863;28;20044;-89
2023/07/21 02:54:41;;;;;;;2.30;2.10;;;;;;;11.78;82.58;101064.25;5073513;28;20480;-89
2023/07/21 02:57:09;;;;;;;1.90;1.80;;;;;;;11.70;82.46;101054.84;5073459;28;20516;-89
2023/07/21 02:59:35;;;;;;;2.30;2.10;;;;;;;11.72;82.68;101055.69;5073371;28;20017;-89
2023/07/21 03:02:01;;;;;;;1.90;1.80;;;;;;;11.70;82.43;101059.19;5073416;28;20020;-89
2023/07/21 03:04:26;;;;;;;1.90;1.80;;;;;;;11.68;82.78;101060.94;5073487;28;20051;-89
2023/07/21 03:06:55;;;;;;;2.33;2.13;;;;;;;11.68;82.86;101073.94;5073780;28;20036;-89
2023/07/21 03:09:20;;;;;;;2.20;2.00;;;;;;;11.56;82.83;101057.66;5072582;28;20082;-90
2023/07/21 03:11:46;;;;;;;2.00;1.90;;;;;;;11.55;83.10;101055.06;5074488;28;20407;-89
2023/07/21 03:14:14;;;;;;;2.10;2.00;;;;;;;11.58;83.27;101073.22;5074811;28;20075;-89
2023/07/21 03:16:40;;;;;;;2.30;2.08;;;;;;;11.63;83.01;101074.03;5073458;28;20048;-89
2023/07/21 03:19:06;;;;;;;1.98;1.88;;;;;;;11.53;82.98;101056.88;5073599;28;20121;-89
2023/07/21 03:21:31;;;;;;;2.40;2.20;;;;;;;11.49;83.13;101063.81;5074211;28;20024;-89
2023/07/21 03:23:57;;;;;;;2.50;2.30;;;;;;;11.47;82.97;101059.53;5073510;28;20055;-89
2023/07/21 03:26:31;;;;;;;2.40;2.20;;;;;;;11.51;83.00;101074.22;5073087;28;20058;-89
2023/07/21 03:28:58;;;;;;;2.47;2.22;;;;;;;11.46;83.21;101074.28;5074114;28;20457;-89
2023/07/21 03:31:26;;;;;;;2.30;2.10;;;;;;;11.44;83.24;101065.66;5073310;28;20568;-88
2023/07/21 03:33:52;;;;;;;2.00;1.90;;;;;;;11.43;83.27;101066.53;5073461;28;20033;-88
2023/07/21 03:36:20;;;;;;;1.90;1.80;;;;;;;11.40;83.60;101075.25;5073285;28;20052;-88
2023/07/21 03:38:46;;;;;;;2.00;1.90;;;;;;;11.33;83.62;101062.38;5073449;28;20058;-89
2023/07/21 03:41:24;;;;;;;2.10;1.93;;;;;;;11.33;83.46;101059.75;5073514;28;20472;-89
2023/07/21 03:43:50;;;;;;;2.17;2.00;;;;;;;11.27;83.55;101058.13;5074579;28;20024;-89
2023/07/21 03:46:15;;;;;;;2.20;2.00;;;;;;;11.33;83.73;101067.56;5073263;28;20457;-89
2023/07/21 03:48:42;;;;;;;2.17;1.97;;;;;;;11.37;83.91;101077.03;5073445;28;20155;-88
2023/07/21 03:51:08;;;;;;;2.20;2.00;;;;;;;11.24;83.81;101065.94;5068664;28;20173;-88
2023/07/21 03:53:33;;;;;;;2.30;2.10;;;;;;;11.36;83.50;101090.91;5073708;28;20124;-88
2023/07/21 03:55:59;;;;;;;2.27;2.10;;;;;;;11.28;83.60;101062.44;5073656;28;20021;-88
2023/07/21 03:58:24;;;;;;;2.30;2.10;;;;;;;11.24;83.57;101066.81;5073166;28;20021;-88
2023/07/21 04:00:50;;;;;;;2.40;2.20;;;;;;;11.32;83.69;101076.22;5073583;28;20051;-88
2023/07/21 04:03:17;;;;;;;2.27;2.07;;;;;;;11.35;83.58;101077.03;5072817;28;20023;-88
2023/07/21 04:05:42;;;;;;;2.20;2.10;;;;;;;11.37;83.81;101071.84;5072859;28;20048;-89
2023/07/21 04:08:08;;;;;;;2.20;2.00;;;;;;;11.36;83.64;101073.56;5073555;28;20115;-89
2023/07/21 04:10:34;;;;;;;2.40;2.20;;;;;;;11.36;83.56;101068.38;5073293;28;20062;-88
2023/07/21 04:12:59;;;;;;;2.47;2.20;;;;;;;11.36;83.76;101067.53;5074260;28;20025;-89
2023/07/21 04:15:28;;;;;;;2.60;2.00;;;;;;;11.35;84.31;101061.44;5077594;28;20031;-88
2023/07/21 04:17:53;;;;;;;2.47;2.28;;;;;;;11.27;83.54;101040.78;5076840;28;20036;-88
2023/07/21 04:20:20;;;;;;;2.50;2.30;;;;;;;11.35;83.91;101053.66;5076322;28;20090;-88
2023/07/21 04:22:46;;;;;;;2.40;2.20;;;;;;;11.28;83.90;101042.50;5077150;28;20043;-88
2023/07/21 04:25:16;;;;;;;2.28;2.08;;;;;;;11.24;84.11;101026.97;5077113;28;20036;-89
2023/07/21 04:27:57;;;;;;;2.20;2.00;;;;;;;11.35;84.23;101042.41;5076012;28;20032;-88
2023/07/21 04:30:40;;;;;;;2.85;2.50;;;;;;;11.39;83.79;101033.66;5076934;28;20033;-88
2023/07/21 04:33:15;;;;;;;3.00;2.70;;;;;;;11.35;83.80;101016.44;5076209;28;20128;-88
2023/07/21 04:35:59;;;;;;;3.80;2.90;;;;;;;11.39;83.26;101012.88;5076448;28;20473;-88
2023/07/21 04:38:28;;;;;;;3.20;2.80;;;;;;;11.55;83.63;101035.16;5075957;28;20024;-88
2023/07/21 04:41:02;;;;;;;2.85;2.50;;;;;;;11.59;83.41;101030.75;5076152;28;20040;-88
2023/07/21 04:43:34;;;;;;;3.67;2.83;;;;;;;11.59;83.75;101033.34;5076381;28;20028;-88
2023/07/21 04:46:09;;;;;;;2.75;2.50;;;;;;;11.62;83.52;101025.53;5076584;28;20028;-88
2023/07/21 04:48:43;;;;;;;3.35;2.85;;;;;;;11.73;83.78;101039.19;5075555;28;20042;-88
2023/07/21 04:51:08;;;;;;;3.50;2.72;;;;;;;11.74;83.61;101032.25;5077100;28;20024;-88
2023/07/21 04:53:36;;;;;;;3.10;2.80;;;;;;;11.74;83.52;101027.03;5078340;28;20024;-88
2023/07/21 04:56:02;;;;;;;3.30;2.92;;;;;;;11.81;83.61;101030.38;5063868;28;20041;-87
2023/07/21 04:58:27;;;;;;;3.10;2.80;;;;;;;11.81;83.65;101020.00;5076081;28;20016;-88
2023/07/21 05:00:54;;;;;;;2.97;2.60;;;;;;;11.94;83.97;101026.69;5076617;28;20032;-88
2023/07/21 05:03:20;;;;;;;3.08;2.78;;;;;;;12.09;83.80;101035.16;5076144;28;20020;-88
2023/07/21 05:05:46;;;;;;;2.90;2.60;;;;;;;12.11;84.30;101026.41;5075619;28;20016;-88
2023/07/21 05:08:11;;;;;;;2.92;2.47;;;;;;;12.20;83.80;101034.03;5075010;28;20086;-88
2023/07/21 05:10:36;;;;;;;3.13;2.70;;;;;;;12.38;83.92;101042.41;5076039;28;20372;-88
2023/07/21 05:13:05;;;;;;;2.70;2.50;;;;;;;12.36;83.99;101033.75;5076444;28;20426;-88
2023/07/21 05:15:35;;;;;;;2.90;2.60;;;;;;;12.44;83.65;101031.00;5075879;28;20430;-88
2023/07/21 05:18:01;;;;;;;3.83;3.00;;;;;;;12.59;83.69;101038.50;5075520;28;20052;-88
2023/07/21 05:20:40;;;;;;;3.00;2.70;;;;;;;12.63;83.45;101031.47;5075333;28;20032;-88
2023/07/21 05:23:06;;;;;;;3.50;2.90;;;;;;;12.82;83.82;101047.56;5075509;28;20074;-88
2023/07/21 05:25:32;;;;;;;3.70;3.10;;;;;;;12.81;83.53;101027.63;5074360;28;20025;-88
2023/07/21 05:27:57;;;;;;;3.50;2.95;;;;;;;13.03;85.57;101040.16;5075958;28;20116;-88
2023/07/21 05:30:24;;;;;;;4.70;3.20;;;;;;;13.08;85.60;101033.13;5075275;28;20108;-87
2023/07/21 05:32:52;;;;;;;3.67;3.03;;;;;;;13.20;85.13;101042.38;5076014;28;20055;-89
2023/07/21 05:35:22;;;;;;;2.95;2.65;;;;;;;13.19;84.40;101028.50;5075272;28;20029;-89
2023/07/21 05:37:47;;;;;;;2.95;2.50;;;;;;;13.38;84.26;101041.97;5075281;28;20380;-89
2023/07/21 05:40:12;;;;;;;2.50;2.30;;;;;;;13.53;85.06;101042.50;5075274;28;20024;-89
2023/07/21 05:42:38;;;;;;;2.57;2.23;;;;;;;13.49;84.21;101025.25;5075952;28;20028;-89
2023/07/21 05:45:29;;;;;;;2.00;1.90;;;;;;;13.62;86.12;101026.66;5075220;28;20032;-89
2023/07/21 05:48:04;;;;;;;2.80;2.50;;;;;;;13.70;84.67;101021.22;5075354;28;20036;-89
2023/07/21 05:50:33;;;;;;;2.90;2.50;;;;;;;13.80;85.04;101027.91;5075352;28;20020;-90
2023/07/21 05:53:02;;;;;;;4.50;3.53;;;;;;;13.87;87.48;101023.41;5076071;28;20139;-89
2023/07/21 05:55:30;;;;;;;5.05;3.30;;;;;;;13.94;85.76;101037.16;5075748;28;20522;-90
2023/07/21 05:57:56;;;;;;;4.10;3.03;;;;;;;13.98;84.95;101018.75;5075215;28;20472;-89
2023/07/21 06:00:23;;;;;;;2.90;2.60;;;;;;;14.23;85.58;101041.59;5078475;28;20032;-89
2023/07/21 06:02:48;;;;;;;2.67;2.40;;;;;;;14.26;84.78;101031.06;5075544;28;20028;-89
2023/07/21 06:05:14;;;;;;;3.10;2.20;;;;;;;14.44;84.56;101039.28;5074670;28;20464;-89
2023/07/21 06:07:49;;;;;;;2.40;2.20;;;;;;;14.60;84.05;101050.13;5074892;28;20167;-89
2023/07/21 06:10:24;;;;;;;5.30;3.80;;;;;;;14.75;85.88;101057.56;5075509;28;20027;-90
2023/07/21 06:12:59;;;;;;;4.55;3.30;;;;;;;14.67;83.94;101036.03;5073592;28;20036;-89
2023/07/21 06:15:25;;;;;;;3.42;2.72;;;;;;;14.81;85.61;101036.47;5075033;28;20024;-90
2023/07/21 06:17:57;;;;;;;4.67;3.27;;;;;;;15.04;85.05;101055.81;5074698;28;20047;-89
2023/07/21 06:20:23;;;;;;;3.03;2.50;;;;;;;15.10;84.40;101044.31;5074923;28;20020;-88
2023/07/21 06:22:56;;;;;;;2.50;2.30;;;;;;;15.29;83.85;101055.06;5074412;28;20035;-87
2023/07/21 06:25:41;;;;;;;2.50;2.30;;;;;;;15.36;83.30;101045.28;5073180;28;20036;-85
2023/07/21 06:28:12;;;;;;;2.38;2.17;;;;;;;15.46;84.24;101038.00;5073946;28;20158;-86
2023/07/21 06:30:53;;;;;;;2.00;1.90;;;;;;;15.56;83.52;101035.00;5074559;28;20056;-87
2023/07/21 06:33:18;;;;;;;2.00;1.90;;;;;;;15.74;82.98;101051.84;5073032;28;20059;-86
2023/07/21 06:35:44;;;;;;;1.50;1.40;;;;;;;15.79;84.06;101027.31;5073386;28;20052;-86
2023/07/21 06:38:09;;;;;;;2.60;2.40;;;;;;;15.88;82.78;101040.94;5062146;28;20035;-85
2023/07/21 06:40:44;;;;;;;2.50;2.30;;;;;;;15.95;82.95;101032.91;5073334;28;20020;-87
2023/07/21 06:43:18;;;;;;;2.10;2.00;;;;;;;16.20;82.49;101051.22;5073285;28;20090;-87
2023/07/21 06:45:52;;;;;;;1.88;1.77;;;;;;;16.31;82.62;101032.50;5073562;28;20024;-85
2023/07/21 06:48:18;;;;;;;2.22;2.05;;;;;;;16.39;81.60;101040.06;5072306;28;20111;-85
2023/07/21 06:50:43;;;;;;;1.80;1.70;;;;;;;16.47;81.70;101032.78;5073906;28;20112;-86
2023/07/21 06:53:08;;;;;;;2.00;1.80;;;;;;;16.60;81.61;101041.03;5073508;28;20099;-86
2023/07/21 06:55:35;;;;;;;1.90;1.80;;;;;;;16.76;81.23;101047.44;5072625;28;20021;-86
2023/07/21 06:58:12;;;;;;;1.90;1.80;;;;;;;16.76;80.80;101021.22;5073476;28;20047;-85
2023/07/21 07:00:38;;;;;;;1.98;1.85;;;;;;;16.97;80.36;101026.56;5072575;28;20024;-86
2023/07/21 07:03:03;;;;;;;2.23;2.10;;;;;;;17.09;80.41;101027.84;5073361;28;20433;-85
2023/07/21 07:05:29;;;;;;;2.10;1.90;;;;;;;17.19;80.10;101021.31;5073429;28;20032;-86
2023/07/21 07:07:57;;;;;;;1.90;1.80;;;;;;;17.35;79.74;101024.16;5072359;28;20029;-84
2023/07/21 07:10:22;;;;;;;1.92;1.83;;;;;;;17.48;79.87;101019.28;5073097;28;20035;-84
2023/07/21 07:12:51;;;;;;;1.83;1.73;;;;;;;17.63;79.11;101033.53;5073604;28;20021;-85
2023/07/21 07:15:17;;;;;;;2.20;2.00;;;;;;;17.70;78.75;101031.50;5071790;28;20106;-85
2023/07/21 07:17:45;;;;;;;2.27;2.07;;;;;;;17.68;78.94;101022.84;5072677;28;20052;-85
2023/07/21 07:20:11;;;;;;;2.30;2.10;;;;;;;17.84;78.29;101034.41;5072725;28;20021;-86
2023/07/21 07:22:37;;;;;;;2.40;2.20;;;;;;;17.90;78.25;101017.53;5072321;28;20523;-86
2023/07/21 07:25:03;;;;;;;4.63;2.95;;;;;;;18.11;76.50;101021.00;5073166;28;20048;-87
2023/07/21 07:27:28;;;;;;;6.47;4.50;;;;;;;18.17;76.09;101033.00;5073291;28;20032;-87
2023/07/21 07:29:54;;;;;;;5.40;3.70;;;;;;;18.26;76.62;101023.88;5072003;28;20503;-86
2023/07/21 07:32:19;;;;;;;4.63;3.37;;;;;;;18.43;76.29;101023.97;5073048;28;20107;-87
2023/07/21 07:34:44;;;;;;;2.90;2.60;;;;;;;18.66;76.12;101027.31;5073196;28;20020;-87
2023/07/21 07:37:09;;;;;;;3.03;2.47;;;;;;;18.85;76.05;101035.19;5071877;28;20024;-87
2023/07/21 07:39:35;;;;;;;7.03;4.00;;;;;;;19.06;70.79;101043.00;5073303;28;20016;-86
2023/07/21 07:42:04;;;;;;;4.57;2.88;;;;;;;19.14;74.37;101033.84;5072868;28;20103;-85
2023/07/21 07:44:29;;;;;;;2.70;2.50;;;;;;;19.29;74.24;101026.13;5072222;28;20111;-83
2023/07/21 07:46:55;;;;;;;2.80;2.50;;;;;;;19.44;72.69;101037.66;5072143;28;20099;-83
2023/07/21 07:49:21;;;;;;;2.53;2.33;;;;;;;19.45;72.00;101039.38;5072585;28;20134;-86
2023/07/21 07:51:46;;;;;;;2.13;1.97;;;;;;;19.51;72.51;101043.47;5072299;28;20031;-86
2023/07/21 07:54:14;;;;;;;1.90;1.80;;;;;;;19.60;72.60;101035.97;5072664;28;20020;-86
2023/07/21 07:56:39;;;;;;;2.00;1.90;;;;;;;19.71;72.98;101040.69;5072344;28;20037;-85
2023/07/21 07:59:05;;;;;;;2.20;2.00;;;;;;;19.86;72.73;101044.34;5071826;28;20016;-85
2023/07/21 08:01:30;;;;;;;1.87;1.77;;;;;;;19.99;72.05;101049.84;5072922;28;20055;-85
2023/07/21 08:04:23;;;;;;;1.70;1.60;;;;;;;20.09;72.02;101047.59;5071561;28;20111;-85
2023/07/21 08:06:55;;;;;;;2.53;1.85;;;;;;;20.13;71.61;101043.88;5072672;28;20029;-86
2023/07/21 08:09:30;;;;;;;1.80;1.70;;;;;;;20.10;71.33;101040.56;5072318;28;20133;-86
2023/07/21 08:11:56;;;;;;;1.63;1.52;;;;;;;20.01;70.18;101033.97;5071926;28;20028;-84
2023/07/21 08:14:24;;;;;;;1.17;1.17;;;;;;;19.98;71.16;101042.91;5072351;28;21013;-86
2023/07/21 08:17:14;;;;;;;2.20;2.00;;;;;;;19.89;69.67;101035.44;5073231;28;20041;-86
2023/07/21 08:19:40;;;;;;;2.10;1.90;;;;;;;19.83;70.66;101030.47;5070586;28;20040;-86
2023/07/21 08:22:05;;;;;;;1.50;1.40;;;;;;;19.92;70.43;101030.03;5072228;28;20111;-86
2023/07/21 08:24:32;;;;;;;1.37;1.37;;;;;;;20.01;68.81;101037.44;5072202;28;20032;-86
2023/07/21 08:26:59;;;;;;;;;;;;;;;20.12;69.44;101036.91;5071783;28;20013;-86
2023/07/21 08:29:25;;;;;;;1.63;1.42;;;;;;;20.26;69.63;101043.22;5072117;28;19913;-86
2023/07/21 08:31:51;;;;;;;4.82;3.40;;;;;;;20.32;62.15;101037.63;5072457;28;20028;-86
2023/07/21 08:34:16;;;;;;;4.77;3.30;;;;;;;20.19;63.35;101037.44;5071523;28;20073;-84
2023/07/21 08:36:42;;;;;;;2.83;2.50;;;;;;;20.12;66.41;101034.25;5072062;28;20062;-85
2023/07/21 08:39:17;;;;;;;3.10;2.23;;;;;;;20.23;67.78;101038.94;5071394;28;20016;-84
2023/07/21 08:42:11;;;;;;;1.83;1.73;;;;;;;20.23;67.63;101022.31;5065225;28;20040;-85
2023/07/21 08:44:39;;;;;;;1.60;1.50;;;;;;;20.40;67.42;101042.47;5071654;28;20631;-84
2023/07/21 08:47:36;;;;;;;1.50;1.40;;;;;;;20.39;67.94;101022.31;5071529;28;20056;-86
2023/07/21 08:50:04;;;;;;;2.05;1.80;;;;;;;20.53;67.02;101038.25;5072031;28;20055;-86
2023/07/21 08:52:31;;;;;;;1.40;1.30;;;;;;;20.57;66.70;101029.22;5072050;28;20392;-85
2023/07/21 08:55:12;;;;;;;1.10;1.10;;;;;;;20.75;65.39;101040.59;5071361;28;20021;-86
2023/07/21 08:57:37;;;;;;;0.63;0.63;;;;;;;20.81;66.30;101047.31;5071815;28;20457;-86
2023/07/21 09:00:04;;;;;;;1.00;1.00;;;;;;;20.79;65.93;101036.00;5074533;28;20028;-84
2023/07/21 09:02:58;;;;;;;1.27;1.17;;;;;;;20.78;65.80;101047.47;5057626;28;20028;-87
2023/07/21 09:05:26;;;;;;;1.73;1.40;;;;;;;20.73;61.73;101052.97;5075470;28;20029;-86
2023/07/21 09:07:51;;;;;;;1.00;1.00;;;;;;;20.66;65.32;101034.00;5074700;28;20039;-88
2023/07/21 09:10:33;;;;;;;0.97;0.97;;;;;;;20.75;64.29;101045.03;5075253;28;20029;-88
2023/07/21 09:13:16;;;;;;;0.85;0.85;;;;;;;20.71;64.29;101038.16;5075681;28;20267;-87
2023/07/21 09:15:52;;;;;;;0.98;0.98;;;;;;;20.81;64.42;101037.63;5074542;28;20027;-88
2023/07/21 09:18:18;;;;;;;0.77;0.77;;;;;;;20.97;65.08;101018.28;5074654;28;20392;-87
2023/07/21 09:20:47;;;;;;;5.80;3.47;;;;;;;21.10;60.11;101032.50;5075248;28;20037;-82
2023/07/21 09:23:34;;;;;;;8.30;4.50;;;;;;;21.22;58.54;101040.66;5074736;28;20453;-92
2023/07/21 09:26:00;;;;;;;5.15;3.40;;;;;;;21.25;60.11;101040.47;5075594;28;20055;-88
2023/07/21 09:28:41;;;;;;;3.10;2.47;;;;;;;21.40;61.22;101046.66;5074269;28;20116;-88
2023/07/21 09:31:16;;;;;;;2.28;2.00;;;;;;;21.55;61.62;101044.91;5074993;28;20024;-86
2023/07/21 09:33:45;;;;;;;4.60;2.83;;;;;;;21.67;55.19;101023.09;5074543;28;20036;-85
2023/07/21 09:36:13;;;;;;;9.43;6.20;;;;;;;21.69;55.58;101029.16;5074236;28;20020;-86
2023/07/21 09:38:39;;;;;;;5.30;3.65;;;;;;;21.72;59.69;101010.47;5071828;28;20638;-86
2023/07/21 09:41:07;;;;;;;2.60;2.40;;;;;;;22.10;59.46;101014.38;5074644;28;20024;-86
2023/07/21 09:43:33;;;;;;;2.70;2.30;;;;;;;22.50;57.68;101019.84;5074363;28;20025;-86
2023/07/21 09:46:06;;;;;;;2.45;2.25;;;;;;;22.78;55.57;101014.59;5074729;28;20103;-86
2023/07/21 09:48:33;;;;;;;2.65;2.20;;;;;;;23.03;56.58;101005.91;5073400;28;20055;-88
2023/07/21 09:51:00;;;;;;;2.17;1.98;;;;;;;23.12;54.05;100996.53;5073444;28;20024;-86
2023/07/21 09:53:34;;;;;;;3.45;2.78;;;;;;;23.26;56.64;101009.72;5074226;28;20426;-86
2023/07/21 09:56:01;;;;;;;2.28;2.08;;;;;;;23.43;56.70;101005.09;5070211;28;20040;-85
2023/07/21 09:58:29;;;;;;;4.43;3.08;;;;;;;23.61;50.79;101000.34;5073445;28;20021;-84
2023/07/21 10:00:59;;;;;;;3.35;2.75;;;;;;;23.60;53.38;100998.66;5074483;28;20148;-87
2023/07/21 10:03:41;;;;;;;12.95;7.13;;;;;;;23.43;49.59;101007.75;5073912;28;20024;-88
2023/07/21 10:06:08;;;;;;;5.35;3.70;;;;;;;23.31;53.02;100992.66;5074285;28;20025;-84
2023/07/21 10:08:38;;;;;;;2.88;2.53;;;;;;;23.30;55.00;101002.44;5074613;28;20037;-82
2023/07/21 10:11:05;;;;;;;2.00;1.90;;;;;;;23.32;55.61;101010.25;5071674;28;20060;-81
2023/07/21 10:14:08;;;;;;;2.10;1.95;;;;;;;23.21;55.51;101003.03;5074479;28;20031;-82
2023/07/21 10:16:34;;;;;;;1.65;1.55;;;;;;;23.09;56.02;101015.25;5067070;28;20050;-81
2023/07/21 10:19:14;;;;;;;2.10;1.90;;;;;;;22.87;55.86;101011.34;5072981;28;20036;-82
2023/07/21 10:21:58;;;;;;;1.88;1.77;;;;;;;22.70;55.50;101020.38;5074316;28;20029;-88
2023/07/21 10:24:25;;;;;;;1.50;1.40;;;;;;;22.55;56.96;101016.06;5074419;28;20066;-88
2023/07/21 10:27:01;;;;;;;1.80;1.70;;;;;;;22.44;57.20;101014.09;5074863;28;20078;-90
2023/07/21 10:29:40;;;;;;;1.70;1.60;;;;;;;22.35;57.99;101005.78;5074534;28;20039;-88
2023/07/21 10:32:06;;;;;;;3.15;2.70;;;;;;;22.18;54.34;100995.41;5075324;28;20104;-88
2023/07/21 10:34:36;;;;;;;2.13;1.90;;;;;;;22.14;57.74;100993.88;5074347;28;20154;-89
2023/07/21 10:37:14;;;;;;;1.65;1.55;;;;;;;22.20;57.59;100991.72;5074706;28;20028;-89
2023/07/21 10:39:44;;;;;;;1.20;1.20;;;;;;;22.34;57.89;101019.09;5074229;28;20021;-89
2023/07/21 10:42:11;;;;;;;1.77;1.67;;;;;;;22.35;57.40;101020.78;5074078;28;20020;-88
2023/07/21 10:44:42;;;;;;;1.52;1.42;;;;;;;22.30;58.52;101017.56;5074769;28;20419;-89
2023/07/21 10:47:24;;;;;;;2.00;1.90;;;;;;;22.21;57.71;101019.00;5073544;28;20031;-88
2023/07/21 10:49:51;;;;;;;5.35;3.65;;;;;;;21.95;55.90;101016.16;5072836;28;20445;-88
2023/07/21 10:52:28;;;;;;;4.53;2.80;;;;;;;21.68;57.64;101006.31;5073573;28;20016;-87
2023/07/21 10:54:56;;;;;;;2.20;2.00;;;;;;;21.61;58.41;101010.28;5072835;28;20016;-86
2023/07/21 10:57:22;;;;;;;4.68;3.38;;;;;;;21.48;58.05;101028.56;5073008;28;20464;-86
2023/07/21 10:59:47;;;;;;;6.00;4.00;;;;;;;21.25;57.86;101019.38;5063734;28;20066;-87
2023/07/21 11:02:13;;;;;;;7.03;4.27;;;;;;;21.01;57.58;101016.31;5072848;28;20041;-88
2023/07/21 11:04:40;;;;;;;3.40;2.83;;;;;;;20.83;59.02;101019.91;5072304;28;20056;-88
2023/07/21 11:07:05;;;;;;;3.90;3.00;;;;;;;20.73;61.72;101017.84;5071667;28;20020;-85
2023/07/21 11:09:43;;;;;;;4.50;3.40;;;;;;;20.42;62.72;101012.47;5072484;28;20017;-84
2023/07/21 11:12:12;;;;;;;3.05;2.60;;;;;;;20.30;63.32;101042.97;5071553;28;20040;-85
2023/07/21 11:14:37;;;;;;;6.78;3.78;;;;;;;19.93;65.28;101031.72;5071962;28;20024;-84
2023/07/21 11:17:12;;;;;;;4.70;3.07;;;;;;;19.74;65.06;101032.66;5072008;28;20060;-82
2023/07/21 11:19:38;;;;;;;3.30;2.85;;;;;;;19.43;65.11;101055.22;5072251;28;20107;-86
2023/07/21 11:22:05;;;;;;;3.30;2.50;;;;;;;19.11;65.19;101064.69;5071052;28;20107;-84
2023/07/21 11:24:32;;;;;;;2.40;2.20;;;;;;;18.94;65.72;101076.03;5072752;28;20435;-84
2023/07/21 11:27:15;;;;;;;2.65;2.20;;;;;;;18.82;66.17;101082.66;5072541;28;20024;-84
2023/07/21 11:29:43;;;;;;;1.98;1.88;;;;;;;18.67;66.54;101074.56;5070856;28;20032;-85
2023/07/21 11:32:22;;;;;;;2.00;1.88;;;;;;;18.71;66.97;101087.56;5072790;28;20017;-84
2023/07/21 11:34:58;;;;;;;2.42;2.22;;;;;;;18.50;67.51;101061.31;5072212;28;20020;-84
2023/07/21 11:37:23;;;;;;;2.05;1.88;;;;;;;18.56;67.68;101079.47;5072020;28;20032;-83